sensor_id;sensor_type;location;lat;lon;timestamp;temperature;humidity
19261;DHT22;9764;48.114;11.670;2023-04-06T00:00:35;19.10;76.70
19261;DHT22;9764;48.114;11.670;2023-04-06T00:03:03;19.10;76.70
19261;DHT22;9764;48.114;11.670;2023-04-06T00:05:32;19.10;76.80
19261;DHT22;9764;48.114;11.670;2023-04-06T00:08:00;19.10;76.80
19261;DHT22;9764;48.114;11.670;2023-04-06T00:10:30;19.10;76.70
19261;DHT22;9764;48.114;11.670;2023-04-06T00:12:59;19.10;76.70
19261;DHT22;9764;48.114;11.670;2023-04-06T00:15:27;19.00;76.70
19261;DHT22;9764;48.114;11.670;2023-04-06T00:17:56;19.10;77.50
19261;DHT22;9764;48.114;11.670;2023-04-06T00:20:24;19.00;76.70
19261;DHT22;9764;48.114;11.670;2023-04-06T00:22:53;19.00;76.70
19261;DHT22;9764;48.114;11.670;2023-04-06T00:25:22;19.00;76.70
19261;DHT22;9764;48.114;11.670;2023-04-06T00:27:52;19.00;76.70
19261;DHT22;9764;48.114;11.670;2023-04-06T00:30:20;19.00;76.70
19261;DHT22;9764;48.114;11.670;2023-04-06T00:32:49;19.00;76.70
19261;DHT22;9764;48.114;11.670;2023-04-06T00:35:18;19.00;76.70
19261;DHT22;9764;48.114;11.670;2023-04-06T00:37:47;19.00;76.70
19261;DHT22;9764;48.114;11.670;2023-04-06T00:40:16;19.00;76.80
19261;DHT22;9764;48.114;11.670;2023-04-06T00:42:45;19.00;76.80
19261;DHT22;9764;48.114;11.670;2023-04-06T00:45:14;19.00;76.70
19261;DHT22;9764;48.114;11.670;2023-04-06T00:47:43;19.00;76.70
19261;DHT22;9764;48.114;11.670;2023-04-06T00:50:11;19.00;76.80
19261;DHT22;9764;48.114;11.670;2023-04-06T00:52:40;19.00;76.80
19261;DHT22;9764;48.114;11.670;2023-04-06T00:55:09;19.00;76.70
19261;DHT22;9764;48.114;11.670;2023-04-06T00:57:41;18.90;76.60
19261;DHT22;9764;48.114;11.670;2023-04-06T01:00:10;18.90;76.70
19261;DHT22;9764;48.114;11.670;2023-04-06T01:02:41;18.90;76.70
19261;DHT22;9764;48.114;11.670;2023-04-06T01:05:13;18.90;76.60
19261;DHT22;9764;48.114;11.670;2023-04-06T01:07:49;18.90;76.70
19261;DHT22;9764;48.114;11.670;2023-04-06T01:10:25;18.90;76.70
19261;DHT22;9764;48.114;11.670;2023-04-06T01:13:08;18.90;76.70
19261;DHT22;9764;48.114;11.670;2023-04-06T01:15:46;18.90;76.70
19261;DHT22;9764;48.114;11.670;2023-04-06T01:18:26;18.90;76.60
19261;DHT22;9764;48.114;11.670;2023-04-06T01:21:13;18.90;76.60
19261;DHT22;9764;48.114;11.670;2023-04-06T01:24:02;18.90;76.70
19261;DHT22;9764;48.114;11.670;2023-04-06T01:26:42;18.90;76.70
19261;DHT22;9764;48.114;11.670;2023-04-06T01:29:11;18.90;76.70
19261;DHT22;9764;48.114;11.670;2023-04-06T01:31:40;18.90;76.70
19261;DHT22;9764;48.114;11.670;2023-04-06T01:34:08;18.90;76.70
19261;DHT22;9764;48.114;11.670;2023-04-06T01:36:37;18.90;76.70
19261;DHT22;9764;48.114;11.670;2023-04-06T01:39:20;18.80;76.70
19261;DHT22;9764;48.114;11.670;2023-04-06T01:41:50;18.80;76.70
19261;DHT22;9764;48.114;11.670;2023-04-06T01:44:20;18.80;76.70
19261;DHT22;9764;48.114;11.670;2023-04-06T01:46:58;18.80;76.70
19261;DHT22;9764;48.114;11.670;2023-04-06T01:49:26;18.80;76.60
19261;DHT22;9764;48.114;11.670;2023-04-06T01:51:56;18.80;76.70
19261;DHT22;9764;48.114;11.670;2023-04-06T01:54:26;18.80;76.70
19261;DHT22;9764;48.114;11.670;2023-04-06T01:57:11;18.80;77.60
19261;DHT22;9764;48.114;11.670;2023-04-06T01:59:47;18.80;76.70
19261;DHT22;9764;48.114;11.670;2023-04-06T02:02:21;18.80;76.80
19261;DHT22;9764;48.114;11.670;2023-04-06T02:05:03;18.80;76.70
19261;DHT22;9764;48.114;11.670;2023-04-06T02:07:32;18.80;76.70
19261;DHT22;9764;48.114;11.670;2023-04-06T02:10:03;18.80;76.80
19261;DHT22;9764;48.114;11.670;2023-04-06T02:12:36;18.80;76.70
19261;DHT22;9764;48.114;11.670;2023-04-06T02:15:09;18.80;76.70
19261;DHT22;9764;48.114;11.670;2023-04-06T02:17:40;18.80;76.80
19261;DHT22;9764;48.114;11.670;2023-04-06T02:20:09;18.80;76.70
19261;DHT22;9764;48.114;11.670;2023-04-06T02:22:38;18.80;76.70
19261;DHT22;9764;48.114;11.670;2023-04-06T02:25:09;18.80;76.70
19261;DHT22;9764;48.114;11.670;2023-04-06T02:27:38;18.80;76.80
19261;DHT22;9764;48.114;11.670;2023-04-06T02:30:07;18.80;76.70
19261;DHT22;9764;48.114;11.670;2023-04-06T02:32:36;18.70;76.70
19261;DHT22;9764;48.114;11.670;2023-04-06T02:35:05;18.70;76.70
19261;DHT22;9764;48.114;11.670;2023-04-06T02:37:34;18.70;76.70
19261;DHT22;9764;48.114;11.670;2023-04-06T02:40:04;18.70;76.70
19261;DHT22;9764;48.114;11.670;2023-04-06T02:42:34;18.70;76.70
19261;DHT22;9764;48.114;11.670;2023-04-06T02:45:04;18.70;76.80
19261;DHT22;9764;48.114;11.670;2023-04-06T02:47:39;18.70;76.70
19261;DHT22;9764;48.114;11.670;2023-04-06T02:50:08;18.70;76.70
19261;DHT22;9764;48.114;11.670;2023-04-06T02:52:44;18.70;76.70
19261;DHT22;9764;48.114;11.670;2023-04-06T02:55:13;18.70;76.70
19261;DHT22;9764;48.114;11.670;2023-04-06T02:57:43;18.70;76.70
19261;DHT22;9764;48.114;11.670;2023-04-06T03:00:12;18.70;76.70
19261;DHT22;9764;48.114;11.670;2023-04-06T03:02:41;18.70;76.70
19261;DHT22;9764;48.114;11.670;2023-04-06T03:05:13;18.70;76.80
19261;DHT22;9764;48.114;11.670;2023-04-06T03:07:43;18.70;76.80
19261;DHT22;9764;48.114;11.670;2023-04-06T03:10:19;18.70;76.70
19261;DHT22;9764;48.114;11.670;2023-04-06T03:12:50;18.70;76.80
19261;DHT22;9764;48.114;11.670;2023-04-06T03:15:22;18.70;76.70
19261;DHT22;9764;48.114;11.670;2023-04-06T03:17:56;18.70;76.70
19261;DHT22;9764;48.114;11.670;2023-04-06T03:20:40;18.60;76.80
19261;DHT22;9764;48.114;11.670;2023-04-06T03:23:09;18.60;76.70
19261;DHT22;9764;48.114;11.670;2023-04-06T03:25:41;18.60;76.70
19261;DHT22;9764;48.114;11.670;2023-04-06T03:28:15;18.60;76.70
19261;DHT22;9764;48.114;11.670;2023-04-06T03:30:49;18.60;76.80
19261;DHT22;9764;48.114;11.670;2023-04-06T03:33:27;18.60;76.70
19261;DHT22;9764;48.114;11.670;2023-04-06T03:35:56;18.60;76.80
19261;DHT22;9764;48.114;11.670;2023-04-06T03:38:25;18.60;76.80
19261;DHT22;9764;48.114;11.670;2023-04-06T03:40:54;18.60;76.80
19261;DHT22;9764;48.114;11.670;2023-04-06T03:43:27;18.60;76.70
19261;DHT22;9764;48.114;11.670;2023-04-06T03:45:56;18.60;76.70
19261;DHT22;9764;48.114;11.670;2023-04-06T03:48:24;18.60;76.70
19261;DHT22;9764;48.114;11.670;2023-04-06T03:50:53;18.60;76.70
19261;DHT22;9764;48.114;11.670;2023-04-06T03:53:22;18.60;76.80
19261;DHT22;9764;48.114;11.670;2023-04-06T03:55:50;18.60;76.80
19261;DHT22;9764;48.114;11.670;2023-04-06T03:58:18;18.60;76.80
19261;DHT22;9764;48.114;11.670;2023-04-06T04:00:48;18.60;76.80
19261;DHT22;9764;48.114;11.670;2023-04-06T04:03:16;18.60;76.80
19261;DHT22;9764;48.114;11.670;2023-04-06T04:05:45;18.60;76.90
19261;DHT22;9764;48.114;11.670;2023-04-06T04:08:13;18.60;76.90
19261;DHT22;9764;48.114;11.670;2023-04-06T04:10:42;18.60;76.80
19261;DHT22;9764;48.114;11.670;2023-04-06T04:13:10;18.60;77.00
19261;DHT22;9764;48.114;11.670;2023-04-06T04:15:40;18.60;76.90
19261;DHT22;9764;48.114;11.670;2023-04-06T04:18:10;18.60;76.90
19261;DHT22;9764;48.114;11.670;2023-04-06T04:20:39;18.60;76.90
19261;DHT22;9764;48.114;11.670;2023-04-06T04:23:09;18.60;76.80
19261;DHT22;9764;48.114;11.670;2023-04-06T04:25:38;18.60;76.90
19261;DHT22;9764;48.114;11.670;2023-04-06T04:28:07;18.60;76.90
19261;DHT22;9764;48.114;11.670;2023-04-06T04:30:37;18.60;76.90
19261;DHT22;9764;48.114;11.670;2023-04-06T04:33:10;18.60;76.90
19261;DHT22;9764;48.114;11.670;2023-04-06T04:35:40;18.60;76.90
19261;DHT22;9764;48.114;11.670;2023-04-06T04:38:12;18.60;76.90
19261;DHT22;9764;48.114;11.670;2023-04-06T04:40:43;18.60;76.90
19261;DHT22;9764;48.114;11.670;2023-04-06T04:43:11;18.60;76.90
19261;DHT22;9764;48.114;11.670;2023-04-06T04:45:40;18.60;76.90
19261;DHT22;9764;48.114;11.670;2023-04-06T04:48:22;18.60;76.80
19261;DHT22;9764;48.114;11.670;2023-04-06T04:51:00;18.60;76.90
19261;DHT22;9764;48.114;11.670;2023-04-06T04:53:40;18.60;76.90
19261;DHT22;9764;48.114;11.670;2023-04-06T04:56:18;18.60;76.90
19261;DHT22;9764;48.114;11.670;2023-04-06T04:58:51;18.60;76.80
19261;DHT22;9764;48.114;11.670;2023-04-06T05:01:20;18.60;76.80
19261;DHT22;9764;48.114;11.670;2023-04-06T05:03:50;18.60;76.80
19261;DHT22;9764;48.114;11.670;2023-04-06T05:06:19;18.60;76.80
19261;DHT22;9764;48.114;11.670;2023-04-06T05:08:47;18.60;76.80
19261;DHT22;9764;48.114;11.670;2023-04-06T05:11:16;18.60;76.80
19261;DHT22;9764;48.114;11.670;2023-04-06T05:13:52;18.60;76.70
19261;DHT22;9764;48.114;11.670;2023-04-06T05:16:23;18.60;76.80
19261;DHT22;9764;48.114;11.670;2023-04-06T05:18:54;18.60;76.70
19261;DHT22;9764;48.114;11.670;2023-04-06T05:21:26;18.60;77.50
19261;DHT22;9764;48.114;11.670;2023-04-06T05:24:06;18.60;76.70
19261;DHT22;9764;48.114;11.670;2023-04-06T05:26:36;18.60;76.70
19261;DHT22;9764;48.114;11.670;2023-04-06T05:29:11;18.60;76.70
19261;DHT22;9764;48.114;11.670;2023-04-06T05:31:40;18.60;76.60
19261;DHT22;9764;48.114;11.670;2023-04-06T05:34:10;18.60;76.60
19261;DHT22;9764;48.114;11.670;2023-04-06T05:36:39;18.70;76.60
19261;DHT22;9764;48.114;11.670;2023-04-06T05:39:16;18.70;76.60
19261;DHT22;9764;48.114;11.670;2023-04-06T05:41:49;18.70;76.60
19261;DHT22;9764;48.114;11.670;2023-04-06T05:44:28;18.70;76.50
19261;DHT22;9764;48.114;11.670;2023-04-06T05:47:06;18.70;76.60
19261;DHT22;9764;48.114;11.670;2023-04-06T05:49:37;18.70;76.50
19261;DHT22;9764;48.114;11.670;2023-04-06T05:52:11;18.80;76.40
19261;DHT22;9764;48.114;11.670;2023-04-06T05:54:43;18.80;76.50
19261;DHT22;9764;48.114;11.670;2023-04-06T05:57:13;18.80;76.40
19261;DHT22;9764;48.114;11.670;2023-04-06T05:59:41;18.80;76.40
19261;DHT22;9764;48.114;11.670;2023-04-06T06:02:12;18.80;76.40
19261;DHT22;9764;48.114;11.670;2023-04-06T06:04:45;18.90;76.40
19261;DHT22;9764;48.114;11.670;2023-04-06T06:07:14;18.90;76.40
19261;DHT22;9764;48.114;11.670;2023-04-06T06:09:48;18.90;76.40
19261;DHT22;9764;48.114;11.670;2023-04-06T06:12:22;18.90;76.30
19261;DHT22;9764;48.114;11.670;2023-04-06T06:14:51;18.90;76.20
19261;DHT22;9764;48.114;11.670;2023-04-06T06:17:20;19.00;76.30
19261;DHT22;9764;48.114;11.670;2023-04-06T06:19:51;19.00;76.20
19261;DHT22;9764;48.114;11.670;2023-04-06T06:22:20;19.00;76.20
19261;DHT22;9764;48.114;11.670;2023-04-06T06:24:49;19.00;76.30
19261;DHT22;9764;48.114;11.670;2023-04-06T06:27:19;19.10;76.20
19261;DHT22;9764;48.114;11.670;2023-04-06T06:29:48;19.10;76.10
19261;DHT22;9764;48.114;11.670;2023-04-06T06:32:17;19.10;76.20
19261;DHT22;9764;48.114;11.670;2023-04-06T06:34:50;19.10;76.00
19261;DHT22;9764;48.114;11.670;2023-04-06T06:37:19;19.10;76.00
19261;DHT22;9764;48.114;11.670;2023-04-06T06:39:49;19.20;76.00
19261;DHT22;9764;48.114;11.670;2023-04-06T06:42:20;19.20;75.90
19261;DHT22;9764;48.114;11.670;2023-04-06T06:45:01;19.20;75.80
19261;DHT22;9764;48.114;11.670;2023-04-06T06:47:30;19.20;75.80
19261;DHT22;9764;48.114;11.670;2023-04-06T06:50:00;19.20;75.90
19261;DHT22;9764;48.114;11.670;2023-04-06T06:52:29;19.20;75.70
19261;DHT22;9764;48.114;11.670;2023-04-06T06:54:59;19.20;75.70
19261;DHT22;9764;48.114;11.670;2023-04-06T06:57:27;19.30;75.70
19261;DHT22;9764;48.114;11.670;2023-04-06T06:59:56;19.30;75.70
19261;DHT22;9764;48.114;11.670;2023-04-06T07:02:28;19.30;75.70
19261;DHT22;9764;48.114;11.670;2023-04-06T07:04:57;19.30;75.60
19261;DHT22;9764;48.114;11.670;2023-04-06T07:07:27;19.30;75.80
19261;DHT22;9764;48.114;11.670;2023-04-06T07:09:55;19.40;75.80
19261;DHT22;9764;48.114;11.670;2023-04-06T07:12:23;19.30;75.70
19261;DHT22;9764;48.114;11.670;2023-04-06T07:14:52;19.40;75.70
19261;DHT22;9764;48.114;11.670;2023-04-06T07:17:21;19.40;75.70
19261;DHT22;9764;48.114;11.670;2023-04-06T07:19:49;19.40;75.60
19261;DHT22;9764;48.114;11.670;2023-04-06T07:22:18;19.40;75.60
19261;DHT22;9764;48.114;11.670;2023-04-06T07:24:48;19.40;75.60
19261;DHT22;9764;48.114;11.670;2023-04-06T07:27:16;19.50;75.60
19261;DHT22;9764;48.114;11.670;2023-04-06T07:29:45;19.40;75.50
19261;DHT22;9764;48.114;11.670;2023-04-06T07:32:14;19.50;75.50
19261;DHT22;9764;48.114;11.670;2023-04-06T07:34:43;19.50;75.50
19261;DHT22;9764;48.114;11.670;2023-04-06T07:37:12;19.50;75.50
19261;DHT22;9764;48.114;11.670;2023-04-06T07:39:42;19.50;75.40
19261;DHT22;9764;48.114;11.670;2023-04-06T07:42:12;19.50;75.50
19261;DHT22;9764;48.114;11.670;2023-04-06T07:44:42;19.50;75.40
19261;DHT22;9764;48.114;11.670;2023-04-06T07:47:11;19.60;75.50
19261;DHT22;9764;48.114;11.670;2023-04-06T07:49:39;19.50;75.40
19261;DHT22;9764;48.114;11.670;2023-04-06T07:52:08;19.60;75.40
19261;DHT22;9764;48.114;11.670;2023-04-06T07:54:37;19.60;75.40
19261;DHT22;9764;48.114;11.670;2023-04-06T07:57:05;19.60;76.20
19261;DHT22;9764;48.114;11.670;2023-04-06T07:59:35;19.60;75.40
19261;DHT22;9764;48.114;11.670;2023-04-06T08:02:04;19.60;75.40
19261;DHT22;9764;48.114;11.670;2023-04-06T08:04:32;19.60;75.40
19261;DHT22;9764;48.114;11.670;2023-04-06T08:07:01;19.60;75.30
19261;DHT22;9764;48.114;11.670;2023-04-06T08:09:29;19.60;75.30
19261;DHT22;9764;48.114;11.670;2023-04-06T08:11:57;19.60;75.30
19261;DHT22;9764;48.114;11.670;2023-04-06T08:14:26;19.70;75.40
19261;DHT22;9764;48.114;11.670;2023-04-06T08:16:56;19.70;75.30
19261;DHT22;9764;48.114;11.670;2023-04-06T08:19:24;19.70;75.40
19261;DHT22;9764;48.114;11.670;2023-04-06T08:21:52;19.70;75.30
19261;DHT22;9764;48.114;11.670;2023-04-06T08:24:21;19.70;75.30
19261;DHT22;9764;48.114;11.670;2023-04-06T08:26:50;19.70;75.10
19261;DHT22;9764;48.114;11.670;2023-04-06T08:29:19;19.70;75.20
19261;DHT22;9764;48.114;11.670;2023-04-06T08:31:47;19.70;75.20
19261;DHT22;9764;48.114;11.670;2023-04-06T08:34:17;19.70;75.10
19261;DHT22;9764;48.114;11.670;2023-04-06T08:36:45;19.70;75.10
19261;DHT22;9764;48.114;11.670;2023-04-06T08:39:14;19.70;75.00
19261;DHT22;9764;48.114;11.670;2023-04-06T08:41:42;19.70;75.00
19261;DHT22;9764;48.114;11.670;2023-04-06T08:44:11;19.80;75.00
19261;DHT22;9764;48.114;11.670;2023-04-06T08:46:39;19.80;75.00
19261;DHT22;9764;48.114;11.670;2023-04-06T08:49:08;19.80;75.00
19261;DHT22;9764;48.114;11.670;2023-04-06T08:51:38;19.80;74.90
19261;DHT22;9764;48.114;11.670;2023-04-06T08:54:07;19.80;75.80
19261;DHT22;9764;48.114;11.670;2023-04-06T08:56:38;19.80;74.90
19261;DHT22;9764;48.114;11.670;2023-04-06T08:59:08;19.90;75.00
19261;DHT22;9764;48.114;11.670;2023-04-06T09:01:39;19.80;74.90
19261;DHT22;9764;48.114;11.670;2023-04-06T09:04:09;19.90;74.90
19261;DHT22;9764;48.114;11.670;2023-04-06T09:06:41;19.80;74.90
19261;DHT22;9764;48.114;11.670;2023-04-06T09:09:09;19.80;74.90
19261;DHT22;9764;48.114;11.670;2023-04-06T09:11:43;19.90;75.00
19261;DHT22;9764;48.114;11.670;2023-04-06T09:14:12;19.90;74.90
19261;DHT22;9764;48.114;11.670;2023-04-06T09:16:42;19.90;74.90
19261;DHT22;9764;48.114;11.670;2023-04-06T09:19:12;19.90;74.90
19261;DHT22;9764;48.114;11.670;2023-04-06T09:21:42;19.90;74.90
19261;DHT22;9764;48.114;11.670;2023-04-06T09:24:10;19.90;74.90
19261;DHT22;9764;48.114;11.670;2023-04-06T09:26:45;19.90;74.90
19261;DHT22;9764;48.114;11.670;2023-04-06T09:29:24;19.90;74.90
19261;DHT22;9764;48.114;11.670;2023-04-06T09:32:02;19.90;74.80
19261;DHT22;9764;48.114;11.670;2023-04-06T09:34:34;19.90;74.80
19261;DHT22;9764;48.114;11.670;2023-04-06T09:37:13;19.90;74.90
19261;DHT22;9764;48.114;11.670;2023-04-06T09:39:42;19.90;74.90
19261;DHT22;9764;48.114;11.670;2023-04-06T09:42:12;20.00;74.90
19261;DHT22;9764;48.114;11.670;2023-04-06T09:44:40;19.90;74.80
19261;DHT22;9764;48.114;11.670;2023-04-06T09:47:09;19.90;74.90
19261;DHT22;9764;48.114;11.670;2023-04-06T09:49:37;19.90;74.80
19261;DHT22;9764;48.114;11.670;2023-04-06T09:52:06;19.90;74.90
19261;DHT22;9764;48.114;11.670;2023-04-06T09:54:38;20.00;74.90
19261;DHT22;9764;48.114;11.670;2023-04-06T09:57:09;20.00;74.90
19261;DHT22;9764;48.114;11.670;2023-04-06T09:59:44;20.00;74.90
19261;DHT22;9764;48.114;11.670;2023-04-06T10:02:20;20.00;74.90
19261;DHT22;9764;48.114;11.670;2023-04-06T10:04:56;20.00;74.90
19261;DHT22;9764;48.114;11.670;2023-04-06T10:07:27;20.00;75.10
19261;DHT22;9764;48.114;11.670;2023-04-06T10:09:58;20.00;75.00
19261;DHT22;9764;48.114;11.670;2023-04-06T10:12:27;20.00;75.10
19261;DHT22;9764;48.114;11.670;2023-04-06T10:14:56;20.00;74.90
19261;DHT22;9764;48.114;11.670;2023-04-06T10:17:24;20.00;75.00
19261;DHT22;9764;48.114;11.670;2023-04-06T10:19:55;20.00;75.00
19261;DHT22;9764;48.114;11.670;2023-04-06T10:22:32;20.00;75.00
19261;DHT22;9764;48.114;11.670;2023-04-06T10:25:02;20.00;75.10
19261;DHT22;9764;48.114;11.670;2023-04-06T10:27:31;20.00;75.10
19261;DHT22;9764;48.114;11.670;2023-04-06T10:30:02;20.10;75.30
19261;DHT22;9764;48.114;11.670;2023-04-06T10:32:35;20.10;75.10
19261;DHT22;9764;48.114;11.670;2023-04-06T10:35:08;20.10;76.10
19261;DHT22;9764;48.114;11.670;2023-04-06T10:37:47;20.10;75.20
19261;DHT22;9764;48.114;11.670;2023-04-06T10:40:24;20.10;75.30
19261;DHT22;9764;48.114;11.670;2023-04-06T10:42:54;20.10;75.30
19261;DHT22;9764;48.114;11.670;2023-04-06T10:45:25;20.10;75.30
19261;DHT22;9764;48.114;11.670;2023-04-06T10:47:55;20.10;75.30
19261;DHT22;9764;48.114;11.670;2023-04-06T10:50:24;20.10;75.40
19261;DHT22;9764;48.114;11.670;2023-04-06T10:52:59;20.10;75.30
19261;DHT22;9764;48.114;11.670;2023-04-06T10:55:29;20.10;75.40
19261;DHT22;9764;48.114;11.670;2023-04-06T10:57:59;20.10;75.40
19261;DHT22;9764;48.114;11.670;2023-04-06T11:00:27;20.20;75.50
19261;DHT22;9764;48.114;11.670;2023-04-06T11:03:15;20.20;75.50
19261;DHT22;9764;48.114;11.670;2023-04-06T11:05:44;20.20;75.60
19261;DHT22;9764;48.114;11.670;2023-04-06T11:08:25;20.20;75.60
19261;DHT22;9764;48.114;11.670;2023-04-06T11:11:06;20.20;75.60
19261;DHT22;9764;48.114;11.670;2023-04-06T11:13:40;20.20;75.60
19261;DHT22;9764;48.114;11.670;2023-04-06T11:16:13;20.20;75.60
19261;DHT22;9764;48.114;11.670;2023-04-06T11:18:53;20.20;75.60
19261;DHT22;9764;48.114;11.670;2023-04-06T11:21:33;20.20;75.60
19261;DHT22;9764;48.114;11.670;2023-04-06T11:24:09;20.20;75.60
19261;DHT22;9764;48.114;11.670;2023-04-06T11:26:41;20.20;75.60
19261;DHT22;9764;48.114;11.670;2023-04-06T11:29:11;20.20;75.60
19261;DHT22;9764;48.114;11.670;2023-04-06T11:31:45;20.30;75.70
19261;DHT22;9764;48.114;11.670;2023-04-06T11:34:16;20.20;75.50
19261;DHT22;9764;48.114;11.670;2023-04-06T11:36:46;20.20;75.60
19261;DHT22;9764;48.114;11.670;2023-04-06T11:39:20;20.20;75.60
19261;DHT22;9764;48.114;11.670;2023-04-06T11:41:52;20.20;75.60
19261;DHT22;9764;48.114;11.670;2023-04-06T11:44:31;20.30;75.70
19261;DHT22;9764;48.114;11.670;2023-04-06T11:47:01;20.20;75.60
19261;DHT22;9764;48.114;11.670;2023-04-06T11:49:30;20.30;75.70
19261;DHT22;9764;48.114;11.670;2023-04-06T11:52:00;20.30;75.70
19261;DHT22;9764;48.114;11.670;2023-04-06T11:54:33;20.30;75.60
19261;DHT22;9764;48.114;11.670;2023-04-06T11:57:04;20.30;75.60
19261;DHT22;9764;48.114;11.670;2023-04-06T11:59:33;20.30;75.50
19261;DHT22;9764;48.114;11.670;2023-04-06T12:02:02;20.30;75.50
19261;DHT22;9764;48.114;11.670;2023-04-06T12:04:31;20.30;75.50
19261;DHT22;9764;48.114;11.670;2023-04-06T12:07:00;20.30;75.50
19261;DHT22;9764;48.114;11.670;2023-04-06T12:09:29;20.30;75.50
19261;DHT22;9764;48.114;11.670;2023-04-06T12:11:57;20.30;75.40
19261;DHT22;9764;48.114;11.670;2023-04-06T12:14:27;20.30;75.40
19261;DHT22;9764;48.114;11.670;2023-04-06T12:16:57;20.40;75.40
19261;DHT22;9764;48.114;11.670;2023-04-06T12:19:26;20.40;75.40
19261;DHT22;9764;48.114;11.670;2023-04-06T12:21:57;20.40;75.40
19261;DHT22;9764;48.114;11.670;2023-04-06T12:24:25;20.40;75.40
19261;DHT22;9764;48.114;11.670;2023-04-06T12:26:55;20.40;75.30
19261;DHT22;9764;48.114;11.670;2023-04-06T12:29:37;20.40;75.30
19261;DHT22;9764;48.114;11.670;2023-04-06T12:32:06;20.40;75.20
19261;DHT22;9764;48.114;11.670;2023-04-06T12:34:35;20.40;75.30
19261;DHT22;9764;48.114;11.670;2023-04-06T12:37:03;20.40;75.30
19261;DHT22;9764;48.114;11.670;2023-04-06T12:39:32;20.40;75.30
19261;DHT22;9764;48.114;11.670;2023-04-06T12:42:01;20.40;75.20
19261;DHT22;9764;48.114;11.670;2023-04-06T12:44:29;20.40;75.20
19261;DHT22;9764;48.114;11.670;2023-04-06T12:46:59;20.40;75.20
19261;DHT22;9764;48.114;11.670;2023-04-06T12:49:28;20.40;75.30
19261;DHT22;9764;48.114;11.670;2023-04-06T12:51:58;20.40;75.20
19261;DHT22;9764;48.114;11.670;2023-04-06T12:54:27;20.40;75.20
19261;DHT22;9764;48.114;11.670;2023-04-06T12:56:55;20.40;75.10
19261;DHT22;9764;48.114;11.670;2023-04-06T12:59:24;20.40;75.10
19261;DHT22;9764;48.114;11.670;2023-04-06T13:01:53;20.50;75.20
19261;DHT22;9764;48.114;11.670;2023-04-06T13:04:23;20.50;75.10
19261;DHT22;9764;48.114;11.670;2023-04-06T13:06:52;20.50;75.10
19261;DHT22;9764;48.114;11.670;2023-04-06T13:09:20;20.50;75.10
19261;DHT22;9764;48.114;11.670;2023-04-06T13:11:49;20.50;75.10
19261;DHT22;9764;48.114;11.670;2023-04-06T13:14:17;20.50;75.00
19261;DHT22;9764;48.114;11.670;2023-04-06T13:16:46;20.50;75.00
19261;DHT22;9764;48.114;11.670;2023-04-06T13:19:14;20.50;74.90
19261;DHT22;9764;48.114;11.670;2023-04-06T13:21:44;20.50;74.90
19261;DHT22;9764;48.114;11.670;2023-04-06T13:24:13;20.50;74.90
19261;DHT22;9764;48.114;11.670;2023-04-06T13:26:43;20.50;74.90
19261;DHT22;9764;48.114;11.670;2023-04-06T13:29:12;20.50;74.90
19261;DHT22;9764;48.114;11.670;2023-04-06T13:31:40;20.50;74.80
19261;DHT22;9764;48.114;11.670;2023-04-06T13:34:09;20.50;74.80
19261;DHT22;9764;48.114;11.670;2023-04-06T13:36:37;20.50;74.80
19261;DHT22;9764;48.114;11.670;2023-04-06T13:39:09;20.50;74.70
19261;DHT22;9764;48.114;11.670;2023-04-06T13:41:38;20.60;74.70
19261;DHT22;9764;48.114;11.670;2023-04-06T13:44:07;20.60;74.70
19261;DHT22;9764;48.114;11.670;2023-04-06T13:46:35;20.60;74.60
19261;DHT22;9764;48.114;11.670;2023-04-06T13:49:05;20.60;74.60
19261;DHT22;9764;48.114;11.670;2023-04-06T13:51:33;20.60;74.60
19261;DHT22;9764;48.114;11.670;2023-04-06T13:54:02;20.70;74.60
19261;DHT22;9764;48.114;11.670;2023-04-06T13:56:32;20.70;74.50
19261;DHT22;9764;48.114;11.670;2023-04-06T13:59:00;20.70;74.40
19261;DHT22;9764;48.114;11.670;2023-04-06T14:01:28;20.70;74.40
19261;DHT22;9764;48.114;11.670;2023-04-06T14:03:57;20.70;74.40
19261;DHT22;9764;48.114;11.670;2023-04-06T14:06:25;20.80;74.40
19261;DHT22;9764;48.114;11.670;2023-04-06T14:08:58;20.80;74.30
19261;DHT22;9764;48.114;11.670;2023-04-06T14:11:26;20.80;74.30
19261;DHT22;9764;48.114;11.670;2023-04-06T14:13:56;20.80;74.30
19261;DHT22;9764;48.114;11.670;2023-04-06T14:16:24;20.80;74.10
19261;DHT22;9764;48.114;11.670;2023-04-06T14:18:53;20.80;74.10
19261;DHT22;9764;48.114;11.670;2023-04-06T14:21:25;20.90;74.10
19261;DHT22;9764;48.114;11.670;2023-04-06T14:23:53;20.90;74.10
19261;DHT22;9764;48.114;11.670;2023-04-06T14:26:25;20.90;74.00
19261;DHT22;9764;48.114;11.670;2023-04-06T14:28:55;20.90;74.00
19261;DHT22;9764;48.114;11.670;2023-04-06T14:31:24;20.90;74.00
19261;DHT22;9764;48.114;11.670;2023-04-06T14:33:53;20.90;73.90
19261;DHT22;9764;48.114;11.670;2023-04-06T14:36:22;20.90;73.90
19261;DHT22;9764;48.114;11.670;2023-04-06T14:38:50;20.90;73.90
19261;DHT22;9764;48.114;11.670;2023-04-06T14:41:20;20.90;73.80
19261;DHT22;9764;48.114;11.670;2023-04-06T14:43:49;20.90;73.90
19261;DHT22;9764;48.114;11.670;2023-04-06T14:46:20;20.90;74.70
19261;DHT22;9764;48.114;11.670;2023-04-06T14:48:49;20.90;73.90
19261;DHT22;9764;48.114;11.670;2023-04-06T14:51:17;20.90;73.80
19261;DHT22;9764;48.114;11.670;2023-04-06T14:53:46;20.90;73.80
19261;DHT22;9764;48.114;11.670;2023-04-06T14:56:19;20.90;73.80
19261;DHT22;9764;48.114;11.670;2023-04-06T14:58:48;20.90;73.70
19261;DHT22;9764;48.114;11.670;2023-04-06T15:01:17;20.90;73.70
19261;DHT22;9764;48.114;11.670;2023-04-06T15:03:47;20.90;73.70
19261;DHT22;9764;48.114;11.670;2023-04-06T15:06:17;20.90;73.70
19261;DHT22;9764;48.114;11.670;2023-04-06T15:08:48;20.90;73.60
19261;DHT22;9764;48.114;11.670;2023-04-06T15:11:16;20.90;73.70
19261;DHT22;9764;48.114;11.670;2023-04-06T15:13:45;20.90;73.70
19261;DHT22;9764;48.114;11.670;2023-04-06T15:16:13;20.90;73.70
19261;DHT22;9764;48.114;11.670;2023-04-06T15:18:42;20.90;73.70
19261;DHT22;9764;48.114;11.670;2023-04-06T15:21:12;20.90;73.70
19261;DHT22;9764;48.114;11.670;2023-04-06T15:23:40;20.90;73.70
19261;DHT22;9764;48.114;11.670;2023-04-06T15:26:09;20.90;73.70
19261;DHT22;9764;48.114;11.670;2023-04-06T15:28:37;20.90;73.70
19261;DHT22;9764;48.114;11.670;2023-04-06T15:31:13;20.90;73.60
19261;DHT22;9764;48.114;11.670;2023-04-06T15:33:54;20.90;73.50
19261;DHT22;9764;48.114;11.670;2023-04-06T15:36:25;20.90;73.60
19261;DHT22;9764;48.114;11.670;2023-04-06T15:38:56;20.90;73.60
19261;DHT22;9764;48.114;11.670;2023-04-06T15:41:24;20.90;73.60
19261;DHT22;9764;48.114;11.670;2023-04-06T15:43:53;20.90;73.60
19261;DHT22;9764;48.114;11.670;2023-04-06T15:46:22;20.90;73.60
19261;DHT22;9764;48.114;11.670;2023-04-06T15:48:50;20.90;74.50
19261;DHT22;9764;48.114;11.670;2023-04-06T15:51:18;20.90;73.60